createdAt,value
2022-12-16T00:01:53.102Z,-4.00
2022-12-16T00:04:23.182Z,-4.00
2022-12-16T00:06:51.182Z,-4.00
2022-12-16T00:09:20.267Z,-4.00
2022-12-16T00:11:48.277Z,-4.00
2022-12-16T00:14:18.841Z,-4.00
2022-12-16T00:16:47.065Z,-4.00
2022-12-16T00:19:15.236Z,-4.10
2022-12-16T00:21:43.242Z,-4.10
2022-12-16T00:24:11.283Z,-4.10
2022-12-16T00:26:39.374Z,-4.10
2022-12-16T00:29:10.420Z,-4.10
2022-12-16T00:31:40.007Z,-4.10
2022-12-16T00:34:08.392Z,-4.10
2022-12-16T00:36:36.404Z,-4.10
2022-12-16T00:39:04.689Z,-4.20
2022-12-16T00:41:32.756Z,-4.20
2022-12-16T00:44:01.469Z,-4.30
2022-12-16T00:46:29.803Z,-4.30
2022-12-16T00:48:59.740Z,-4.30
2022-12-16T00:51:27.731Z,-4.30
2022-12-16T00:53:55.726Z,-4.30
2022-12-16T00:56:23.999Z,-4.30
2022-12-16T00:58:52.323Z,-4.20
2022-12-16T01:01:20.694Z,-4.20
2022-12-16T01:03:48.831Z,-4.30
2022-12-16T01:06:19.326Z,-4.30
2022-12-16T01:08:48.434Z,-4.30
2022-12-16T01:11:19.046Z,-4.40
2022-12-16T01:13:51.349Z,-4.40
2022-12-16T01:16:20.971Z,-4.40
2022-12-16T01:18:49.175Z,-4.40
2022-12-16T01:21:18.544Z,-4.40
2022-12-16T01:23:48.773Z,-4.40
2022-12-16T01:26:19.323Z,-4.40
2022-12-16T01:28:50.209Z,-2.60
2022-12-16T01:31:21.455Z,-4.50
2022-12-16T01:33:49.526Z,-4.50
2022-12-16T01:36:19.998Z,-4.50
2022-12-16T01:38:48.288Z,-4.50
2022-12-16T01:41:18.665Z,-4.50
2022-12-16T01:43:47.741Z,-5.30
2022-12-16T01:46:24.232Z,-4.50
2022-12-16T01:48:59.163Z,-4.50
2022-12-16T01:51:36.633Z,-4.50
2022-12-16T01:54:11.253Z,-4.50
2022-12-16T01:56:45.777Z,-4.40
2022-12-16T01:59:18.703Z,-4.30
2022-12-16T02:01:47.343Z,-4.40
2022-12-16T02:04:15.675Z,-4.40
2022-12-16T02:06:45.182Z,-4.40
2022-12-16T02:09:16.050Z,-4.30
2022-12-16T02:12:13.985Z,-4.30
2022-12-16T02:15:09.626Z,-4.30
2022-12-16T02:17:51.570Z,-4.30
2022-12-16T02:21:07.682Z,-4.40
2022-12-16T02:24:16.507Z,-4.40
2022-12-16T02:27:32.612Z,-4.50
2022-12-16T02:30:33.943Z,-4.50
2022-12-16T02:33:18.447Z,-4.40
2022-12-16T02:35:56.126Z,-4.50
2022-12-16T02:38:35.911Z,-4.50
2022-12-16T02:41:07.708Z,-4.50
2022-12-16T02:43:55.576Z,-4.50
2022-12-16T02:46:28.880Z,-4.40
2022-12-16T02:48:58.400Z,-4.50
2022-12-16T02:51:28.256Z,-4.50
2022-12-16T02:53:57.329Z,-4.50
2022-12-16T02:56:46.441Z,-4.50
2022-12-16T02:59:28.483Z,-4.50
2022-12-16T03:02:12.298Z,-4.60
2022-12-16T03:04:48.729Z,-4.60
2022-12-16T03:07:21.444Z,-4.60
2022-12-16T03:09:52.603Z,-4.60
2022-12-16T03:12:23.866Z,-4.60
2022-12-16T03:14:54.836Z,-4.60
2022-12-16T03:17:28.569Z,-4.60
2022-12-16T03:20:05.263Z,-4.60
2022-12-16T03:22:39.675Z,-4.60
2022-12-16T03:25:09.039Z,-4.60
2022-12-16T03:27:46.104Z,-4.60
2022-12-16T03:30:20.692Z,-4.60
2022-12-16T03:32:58.773Z,-4.70
2022-12-16T03:35:34.738Z,-4.70
2022-12-16T03:38:07.976Z,-4.70
2022-12-16T03:40:38.898Z,-4.70
2022-12-16T03:43:08.808Z,-4.70
2022-12-16T03:45:42.661Z,-4.70
2022-12-16T03:48:15.552Z,-4.70
2022-12-16T03:50:43.691Z,-4.70
2022-12-16T03:53:11.750Z,-4.70
2022-12-16T03:55:39.758Z,-4.70
2022-12-16T03:58:08.906Z,-4.70
2022-12-16T04:00:37.500Z,-4.80
2022-12-16T04:03:05.769Z,-4.80
2022-12-16T04:05:35.315Z,-4.80
2022-12-16T04:08:03.331Z,-4.80
2022-12-16T04:10:49.013Z,-4.80
2022-12-16T04:13:34.961Z,-4.80
2022-12-16T04:16:21.304Z,-4.80
2022-12-16T04:19:07.843Z,-4.80
2022-12-16T04:21:55.771Z,-4.80
2022-12-16T04:24:29.719Z,-4.80
2022-12-16T04:27:16.103Z,-4.80
2022-12-16T04:29:59.240Z,-4.80
2022-12-16T04:32:27.912Z,-4.80
2022-12-16T04:34:54.902Z,-4.80
2022-12-16T04:37:42.003Z,-4.80
2022-12-16T04:40:28.911Z,-4.80
2022-12-16T04:43:14.472Z,-4.80
2022-12-16T04:45:59.951Z,-4.80
2022-12-16T04:48:45.604Z,-4.80
2022-12-16T04:51:31.385Z,-4.80
2022-12-16T04:54:18.308Z,-4.80
2022-12-16T04:57:18.340Z,-4.80
2022-12-16T05:00:03.909Z,-4.80
2022-12-16T05:02:49.805Z,-4.80
2022-12-16T05:05:35.593Z,-4.80
2022-12-16T05:08:21.255Z,-4.80
2022-12-16T05:11:16.493Z,-4.80
2022-12-16T05:14:02.208Z,-4.80
2022-12-16T05:16:47.678Z,-4.80
2022-12-16T05:19:33.227Z,-4.80
2022-12-16T05:22:18.849Z,-4.80
2022-12-16T05:25:09.699Z,-4.80
2022-12-16T05:27:56.399Z,-4.90
2022-12-16T05:30:42.097Z,-4.90
2022-12-16T05:33:27.986Z,-5.00
2022-12-16T05:36:13.676Z,-5.00
2022-12-16T05:38:59.637Z,-5.00
2022-12-16T05:41:45.120Z,-5.00
2022-12-16T05:44:32.496Z,-5.00
2022-12-16T05:47:18.121Z,-5.00
2022-12-16T05:50:03.881Z,-5.00
2022-12-16T05:52:49.571Z,-4.90
2022-12-16T05:55:35.654Z,-5.00
2022-12-16T05:58:21.139Z,-4.90
2022-12-16T06:01:23.110Z,-5.00
2022-12-16T06:04:12.837Z,-4.90
2022-12-16T06:07:01.396Z,-5.00
2022-12-16T06:09:49.578Z,-5.00
2022-12-16T06:12:40.402Z,-5.00
2022-12-16T06:15:27.205Z,-4.90
2022-12-16T06:18:14.148Z,-4.90
2022-12-16T06:21:00.211Z,-4.80
2022-12-16T06:23:45.909Z,-4.80
2022-12-16T06:26:31.697Z,-4.90
2022-12-16T06:29:17.316Z,-4.90
2022-12-16T06:32:02.820Z,-4.90
2022-12-16T06:35:01.388Z,-4.80
2022-12-16T06:37:46.873Z,-4.70
2022-12-16T06:40:32.513Z,-4.80
2022-12-16T06:43:18.194Z,-4.70
2022-12-16T06:46:03.627Z,-4.70
2022-12-16T06:48:49.640Z,-4.80
2022-12-16T06:51:36.785Z,-4.80
2022-12-16T06:54:22.395Z,-4.80
2022-12-16T06:57:22.576Z,-4.70
2022-12-16T07:00:07.970Z,-4.70
2022-12-16T07:02:54.295Z,-4.70
2022-12-16T07:05:40.996Z,-4.70
2022-12-16T07:08:27.716Z,-4.60
2022-12-16T07:11:17.047Z,-4.60
2022-12-16T07:14:03.166Z,-4.60
2022-12-16T07:16:48.757Z,-4.50
2022-12-16T07:19:34.726Z,-4.50
2022-12-16T07:22:20.249Z,-4.50
2022-12-16T07:25:07.592Z,-4.50
2022-12-16T07:27:53.449Z,-4.50
2022-12-16T07:30:39.082Z,-4.50
2022-12-16T07:33:24.606Z,-4.50
2022-12-16T07:36:10.206Z,-4.60
2022-12-16T07:38:55.654Z,-4.50
2022-12-16T07:41:43.685Z,-4.50
2022-12-16T07:44:28.987Z,-4.60
2022-12-16T07:47:14.456Z,-4.60
2022-12-16T07:50:00.160Z,-4.50
2022-12-16T07:52:45.685Z,-4.50
2022-12-16T07:55:42.759Z,-4.40
2022-12-16T07:58:30.059Z,-4.40
2022-12-16T08:01:15.889Z,-4.40
2022-12-16T08:04:02.158Z,-4.40
2022-12-16T08:06:47.889Z,-4.30
2022-12-16T08:09:33.599Z,-4.30
2022-12-16T08:12:19.210Z,-4.20
2022-12-16T08:15:06.073Z,-4.00
2022-12-16T08:17:51.743Z,-3.60
2022-12-16T08:20:38.518Z,-3.10
2022-12-16T08:23:24.165Z,-2.50
2022-12-16T08:26:18.305Z,-1.80
2022-12-16T08:29:27.331Z,-1.10
2022-12-16T08:32:10.926Z,-0.50
2022-12-16T08:34:56.502Z,0.00
2022-12-16T08:37:42.199Z,0.30
2022-12-16T08:40:36.664Z,0.60
2022-12-16T08:43:22.854Z,0.90
2022-12-16T08:46:12.641Z,1.20
2022-12-16T08:49:00.337Z,1.40
2022-12-16T08:51:46.363Z,1.60
2022-12-16T08:54:32.060Z,2.00
2022-12-16T08:57:26.042Z,2.20
2022-12-16T09:00:11.605Z,2.40
2022-12-16T09:02:57.426Z,2.60
2022-12-16T09:05:44.945Z,2.80
2022-12-16T09:08:30.411Z,3.00
2022-12-16T09:11:19.514Z,3.30
2022-12-16T09:14:05.635Z,3.60
2022-12-16T09:16:51.172Z,3.70
2022-12-16T09:19:37.242Z,3.90
2022-12-16T09:22:24.316Z,4.20
2022-12-16T09:25:10.185Z,4.30
2022-12-16T09:27:55.838Z,4.40
2022-12-16T09:30:50.481Z,4.60
2022-12-16T09:33:37.013Z,4.80
2022-12-16T09:36:23.369Z,4.80
2022-12-16T09:39:10.863Z,5.00
2022-12-16T09:42:02.805Z,5.00
2022-12-16T09:45:06.218Z,5.20
2022-12-16T09:48:04.961Z,5.40
2022-12-16T09:50:52.539Z,5.50
2022-12-16T09:53:41.188Z,5.50
2022-12-16T09:56:35.854Z,5.30
2022-12-16T09:59:27.586Z,5.40
2022-12-16T10:02:14.631Z,5.40
2022-12-16T10:05:01.353Z,5.40
2022-12-16T10:07:55.313Z,5.50
2022-12-16T10:10:58.961Z,5.50
2022-12-16T10:13:58.408Z,5.60
2022-12-16T10:16:54.292Z,5.70
2022-12-16T10:19:56.427Z,5.80
2022-12-16T10:22:52.075Z,5.80
2022-12-16T10:25:42.573Z,5.90
2022-12-16T10:28:36.764Z,6.00
2022-12-16T10:31:35.246Z,6.10
2022-12-16T10:34:28.126Z,6.30
2022-12-16T10:37:19.106Z,6.50
2022-12-16T10:40:14.369Z,6.40
2022-12-16T10:43:08.768Z,4.60
2022-12-16T10:46:04.116Z,5.70
2022-12-16T10:48:57.001Z,5.60
2022-12-16T10:51:47.103Z,5.60
2022-12-16T10:54:57.193Z,5.30
2022-12-16T10:57:57.484Z,4.80
2022-12-16T11:01:00.390Z,4.40
2022-12-16T11:03:51.042Z,4.00
2022-12-16T11:06:43.983Z,3.90
2022-12-16T11:09:52.526Z,3.60
2022-12-16T11:12:45.937Z,3.60
2022-12-16T11:15:44.780Z,3.60
2022-12-16T11:18:34.364Z,3.60
2022-12-16T11:21:31.839Z,3.50
2022-12-16T11:24:33.278Z,3.50
2022-12-16T11:27:22.554Z,3.60
2022-12-16T11:30:11.191Z,3.60
2022-12-16T11:33:00.644Z,3.60
2022-12-16T11:35:50.953Z,3.60
2022-12-16T11:38:44.443Z,3.50
2022-12-16T11:41:43.440Z,3.50
2022-12-16T11:44:40.010Z,3.50
2022-12-16T11:47:40.642Z,3.50
2022-12-16T11:50:34.531Z,3.50
2022-12-16T11:53:20.992Z,3.40
2022-12-16T11:56:16.356Z,3.30
2022-12-16T11:59:08.783Z,3.30
2022-12-16T12:02:08.359Z,3.40
2022-12-16T12:04:54.430Z,3.40
2022-12-16T12:07:53.374Z,3.30
2022-12-16T12:11:15.744Z,3.20
2022-12-16T12:14:18.708Z,3.00
2022-12-16T12:17:23.212Z,2.90
2022-12-16T12:20:29.422Z,2.90
2022-12-16T12:23:25.654Z,2.90
2022-12-16T12:26:31.283Z,2.80
2022-12-16T12:29:33.051Z,2.80
2022-12-16T12:32:37.250Z,2.70
2022-12-16T12:35:44.821Z,2.60
2022-12-16T12:38:39.241Z,2.60
2022-12-16T12:41:38.002Z,2.50
2022-12-16T12:44:48.717Z,2.50
2022-12-16T12:47:37.753Z,2.50
2022-12-16T12:50:32.398Z,2.40
2022-12-16T12:53:40.717Z,2.40
2022-12-16T12:56:45.494Z,2.40
2022-12-16T12:59:41.476Z,2.30
2022-12-16T13:02:35.876Z,2.30
2022-12-16T13:05:24.719Z,2.20
2022-12-16T13:08:10.681Z,2.20
2022-12-16T13:10:54.081Z,2.10
2022-12-16T13:14:02.565Z,2.10
2022-12-16T13:17:25.827Z,2.10
2022-12-16T13:20:16.175Z,2.00
2022-12-16T13:23:04.367Z,1.90
2022-12-16T13:25:55.971Z,1.90
2022-12-16T13:28:49.645Z,1.90
2022-12-16T13:31:38.408Z,1.90
2022-12-16T13:34:38.886Z,1.90
2022-12-16T13:37:36.997Z,1.90
2022-12-16T13:40:36.980Z,1.80
2022-12-16T13:43:23.966Z,1.80
2022-12-16T13:46:36.536Z,1.80
2022-12-16T13:49:59.642Z,1.70
2022-12-16T13:53:01.474Z,1.70
2022-12-16T13:55:52.081Z,1.70
2022-12-16T13:58:55.349Z,1.60
2022-12-16T14:01:56.018Z,1.60
2022-12-16T14:04:47.680Z,1.50
2022-12-16T14:07:36.958Z,1.40
2022-12-16T14:10:23.822Z,1.40
2022-12-16T14:13:21.040Z,1.40
2022-12-16T14:16:20.183Z,1.40
2022-12-16T14:19:30.528Z,1.30
2022-12-16T14:22:32.173Z,1.20
2022-12-16T14:25:28.145Z,1.10
2022-12-16T14:28:14.048Z,1.10
2022-12-16T14:31:00.682Z,1.10
2022-12-16T14:33:48.614Z,1.00
2022-12-16T14:36:41.718Z,0.90
2022-12-16T14:39:39.993Z,1.00
2022-12-16T14:42:38.364Z,1.00
2022-12-16T14:45:40.500Z,0.90
2022-12-16T14:48:47.632Z,0.90
2022-12-16T14:51:48.432Z,0.80
2022-12-16T14:54:49.862Z,0.70
2022-12-16T14:57:40.235Z,0.70
2022-12-16T15:00:35.946Z,0.70
2022-12-16T15:03:34.599Z,0.60
2022-12-16T15:06:23.805Z,0.50
2022-12-16T15:09:15.765Z,0.50
2022-12-16T15:12:03.232Z,0.50
2022-12-16T15:14:53.231Z,0.50
2022-12-16T15:17:43.364Z,0.50
2022-12-16T15:20:39.013Z,0.50
2022-12-16T15:23:37.801Z,0.50
2022-12-16T15:26:25.477Z,0.50
2022-12-16T15:29:12.038Z,0.40
2022-12-16T15:32:03.127Z,0.40
2022-12-16T15:34:55.374Z,0.40
2022-12-16T15:37:44.557Z,0.50
2022-12-16T15:40:46.091Z,0.40
2022-12-16T15:43:48.892Z,0.40
2022-12-16T15:46:40.719Z,0.30
2022-12-16T15:49:38.769Z,0.40
2022-12-16T15:52:52.717Z,0.40
2022-12-16T15:55:49.123Z,0.40
2022-12-16T15:58:45.186Z,0.40
2022-12-16T16:01:38.616Z,0.40
2022-12-16T16:04:39.591Z,0.40
2022-12-16T16:07:50.671Z,0.30
2022-12-16T16:10:45.957Z,0.40
2022-12-16T16:13:31.766Z,0.30
2022-12-16T16:16:17.737Z,0.40
2022-12-16T16:19:05.024Z,0.40
2022-12-16T16:21:50.874Z,0.30
2022-12-16T16:24:36.492Z,0.30
2022-12-16T16:27:28.839Z,0.40
2022-12-16T16:30:14.607Z,0.40
2022-12-16T16:33:00.178Z,0.40
2022-12-16T16:35:48.788Z,0.40
2022-12-16T16:38:34.873Z,0.30
2022-12-16T16:41:20.292Z,0.30
2022-12-16T16:44:05.780Z,0.40
2022-12-16T16:46:56.475Z,0.30
2022-12-16T16:49:47.412Z,0.40
2022-12-16T16:52:43.782Z,0.40
2022-12-16T16:55:36.407Z,0.30
2022-12-16T16:58:30.731Z,0.30
2022-12-16T17:01:16.438Z,0.30
2022-12-16T17:04:02.666Z,0.20
2022-12-16T17:07:02.873Z,0.20
2022-12-16T17:09:50.159Z,0.30
2022-12-16T17:12:39.067Z,0.20
2022-12-16T17:15:35.817Z,0.20
2022-12-16T17:18:43.083Z,0.20
2022-12-16T17:21:30.490Z,0.20
2022-12-16T17:24:16.052Z,0.20
2022-12-16T17:27:04.049Z,0.20
2022-12-16T17:29:57.491Z,0.20
2022-12-16T17:32:43.421Z,0.20
2022-12-16T17:35:30.110Z,0.20
2022-12-16T17:38:15.577Z,0.10
2022-12-16T17:41:01.111Z,0.30
2022-12-16T17:43:48.038Z,0.30
2022-12-16T17:46:33.727Z,0.30
2022-12-16T17:49:19.511Z,0.40
2022-12-16T17:52:13.392Z,0.50
2022-12-16T17:54:59.016Z,0.60
2022-12-16T17:57:44.635Z,0.50
2022-12-16T18:00:32.965Z,0.50
2022-12-16T18:03:18.867Z,0.50
2022-12-16T18:06:04.892Z,0.40
2022-12-16T18:08:50.821Z,0.40
2022-12-16T18:11:51.267Z,0.40
2022-12-16T18:14:36.855Z,0.40
2022-12-16T18:17:24.133Z,-0.30
2022-12-16T18:20:09.702Z,0.30
2022-12-16T18:22:55.114Z,0.30
2022-12-16T18:25:40.729Z,0.30
2022-12-16T18:28:26.321Z,0.30
2022-12-16T18:31:11.963Z,0.30
2022-12-16T18:33:59.006Z,0.30
2022-12-16T18:36:44.667Z,0.30
2022-12-16T18:39:30.388Z,0.30
2022-12-16T18:42:16.209Z,0.30
2022-12-16T18:45:01.880Z,0.30
2022-12-16T18:47:47.686Z,0.30
2022-12-16T18:50:38.123Z,0.30
2022-12-16T18:53:24.775Z,0.30
2022-12-16T18:56:19.391Z,0.30
2022-12-16T18:59:04.864Z,0.30
2022-12-16T19:01:51.115Z,0.30
2022-12-16T19:04:36.841Z,0.30
2022-12-16T19:07:23.620Z,0.30
2022-12-16T19:10:09.271Z,0.30
2022-12-16T19:12:55.303Z,0.30
2022-12-16T19:15:41.667Z,0.40
2022-12-16T19:18:27.873Z,0.30
2022-12-16T19:21:14.905Z,0.30
2022-12-16T19:24:02.442Z,0.40
2022-12-16T19:26:48.049Z,0.40
2022-12-16T19:29:33.760Z,0.40
2022-12-16T19:32:19.450Z,0.30
2022-12-16T19:35:05.284Z,0.20
2022-12-16T19:37:53.644Z,0.10
2022-12-16T19:40:40.832Z,0.10
2022-12-16T19:43:26.369Z,0.10
2022-12-16T19:46:12.534Z,0.10
2022-12-16T19:48:58.857Z,0.20
2022-12-16T19:51:47.312Z,0.10
2022-12-16T19:54:33.173Z,0.00
2022-12-16T19:57:20.433Z,-0.10
2022-12-16T20:00:06.343Z,0.00
2022-12-16T20:02:57.616Z,0.00
2022-12-16T20:05:46.329Z,0.00
2022-12-16T20:08:32.306Z,0.00
2022-12-16T20:11:32.237Z,0.00
2022-12-16T20:14:19.184Z,0.00
2022-12-16T20:17:04.925Z,0.00
2022-12-16T20:19:50.698Z,0.10
2022-12-16T20:22:37.369Z,0.10
2022-12-16T20:25:23.724Z,0.10
2022-12-16T20:28:09.198Z,0.10
2022-12-16T20:30:56.655Z,0.10
2022-12-16T20:33:42.624Z,0.10
2022-12-16T20:36:29.258Z,0.10
2022-12-16T20:39:14.873Z,0.10
2022-12-16T20:42:00.583Z,0.10
2022-12-16T20:44:46.224Z,0.10
2022-12-16T20:47:33.505Z,0.10
2022-12-16T20:50:19.305Z,0.10
2022-12-16T20:53:05.142Z,0.10
2022-12-16T20:55:50.876Z,0.10
2022-12-16T20:58:37.846Z,0.10
2022-12-16T21:01:24.438Z,0.10
2022-12-16T21:04:14.723Z,0.00
2022-12-16T21:07:00.277Z,0.00
2022-12-16T21:09:45.851Z,0.00
2022-12-16T21:12:31.514Z,0.00
2022-12-16T21:15:17.058Z,0.00
2022-12-16T21:18:02.659Z,0.00
2022-12-16T21:20:49.948Z,0.10
2022-12-16T21:23:35.691Z,0.10
2022-12-16T21:26:21.770Z,0.10
2022-12-16T21:29:07.325Z,0.10
2022-12-16T21:31:53.549Z,0.10
2022-12-16T21:34:39.620Z,0.10
2022-12-16T21:37:26.497Z,0.10
2022-12-16T21:40:12.093Z,0.10
2022-12-16T21:42:57.630Z,0.10
2022-12-16T21:45:43.368Z,0.20
2022-12-16T21:48:30.454Z,0.20
2022-12-16T21:51:18.633Z,0.20
2022-12-16T21:54:17.382Z,0.30
2022-12-16T21:57:02.960Z,0.20
2022-12-16T21:59:48.454Z,0.20
2022-12-16T22:02:36.819Z,0.10
2022-12-16T22:05:23.021Z,0.10
2022-12-16T22:08:23.028Z,0.20
2022-12-16T22:11:10.019Z,0.20
2022-12-16T22:17:01.421Z,0.50
2022-12-16T22:19:47.086Z,0.40
2022-12-16T22:22:32.775Z,0.20
2022-12-16T22:25:18.316Z,0.20
2022-12-16T22:28:05.272Z,0.20
2022-12-16T22:30:50.877Z,0.10
2022-12-16T22:33:37.386Z,0.10
2022-12-16T22:36:25.908Z,0.10
2022-12-16T22:39:11.767Z,0.10
2022-12-16T22:41:57.236Z,0.10
2022-12-16T22:44:44.221Z,0.00
2022-12-16T22:47:29.730Z,-0.20
2022-12-16T22:50:15.537Z,-0.20
2022-12-16T22:53:01.429Z,-0.30
2022-12-16T22:55:46.914Z,-0.30
2022-12-16T22:58:32.442Z,-0.20
2022-12-16T23:01:19.495Z,-0.20
2022-12-16T23:04:05.435Z,-0.20
2022-12-16T23:06:51.915Z,-0.20
2022-12-16T23:09:37.541Z,-0.20
2022-12-16T23:12:23.992Z,-0.20
2022-12-16T23:15:13.180Z,-0.10
2022-12-16T23:18:00.115Z,-0.20
2022-12-16T23:20:45.497Z,-0.40
2022-12-16T23:23:33.880Z,-0.50
2022-12-16T23:26:21.590Z,-0.60
2022-12-16T23:29:09.007Z,-0.60
2022-12-16T23:31:56.576Z,-0.60
2022-12-16T23:34:46.040Z,-0.60
2022-12-16T23:37:31.627Z,-0.50
2022-12-16T23:40:17.226Z,-0.50
2022-12-16T23:43:03.266Z,-0.40
2022-12-16T23:45:48.709Z,-0.50
2022-12-16T23:48:35.701Z,-0.50
2022-12-16T23:51:22.936Z,-0.40
2022-12-16T23:54:08.513Z,-0.40
2022-12-16T23:56:54.473Z,-0.50
2022-12-16T23:59:42.124Z,-0.50
